createdAt,value
2023-05-24T00:02:16.290Z,13.70
2023-05-24T00:04:45.321Z,13.70
2023-05-24T00:07:12.723Z,13.70
2023-05-24T00:09:39.758Z,13.70
2023-05-24T00:12:06.764Z,13.60
2023-05-24T00:14:33.919Z,13.60
2023-05-24T00:17:01.066Z,13.60
2023-05-24T00:19:28.295Z,13.60
2023-05-24T00:21:55.700Z,13.60
2023-05-24T00:24:22.662Z,13.60
2023-05-24T00:26:49.749Z,13.60
2023-05-24T00:29:16.667Z,13.50
2023-05-24T00:31:43.692Z,13.60
2023-05-24T00:34:10.976Z,13.50
2023-05-24T00:36:38.487Z,13.60
2023-05-24T00:39:06.194Z,13.50
2023-05-24T00:41:33.623Z,13.50
2023-05-24T00:44:00.614Z,13.50
2023-05-24T00:46:30.128Z,13.50
2023-05-24T00:48:57.230Z,13.50
2023-05-24T00:51:26.575Z,13.50
2023-05-24T00:53:53.636Z,13.50
2023-05-24T00:56:20.871Z,13.50
2023-05-24T00:58:48.591Z,13.40
2023-05-24T01:01:15.548Z,13.50
2023-05-24T01:03:42.759Z,13.50
2023-05-24T01:06:13.146Z,13.40
2023-05-24T01:08:40.371Z,13.40
2023-05-24T01:11:29.520Z,13.40
2023-05-24T01:14:07.435Z,13.40
2023-05-24T01:16:58.144Z,13.40
2023-05-24T01:19:45.106Z,13.40
2023-05-24T01:22:31.197Z,13.30
2023-05-24T01:25:03.770Z,13.40
2023-05-24T01:27:32.363Z,13.40
2023-05-24T01:30:00.225Z,13.30
2023-05-24T01:32:27.594Z,13.40
2023-05-24T01:34:54.672Z,13.40
2023-05-24T01:37:21.698Z,13.40
2023-05-24T01:39:49.277Z,13.30
2023-05-24T01:42:19.519Z,13.30
2023-05-24T01:45:05.240Z,13.30
2023-05-24T01:47:45.584Z,13.30
2023-05-24T01:50:17.458Z,13.30
2023-05-24T01:52:45.002Z,13.30
2023-05-24T01:55:13.986Z,13.30
2023-05-24T01:57:43.593Z,13.30
2023-05-24T02:00:13.180Z,13.20
2023-05-24T02:02:40.191Z,13.20
2023-05-24T02:05:07.793Z,13.20
2023-05-24T02:07:35.487Z,13.20
2023-05-24T02:10:02.504Z,13.10
2023-05-24T02:12:29.929Z,13.10
2023-05-24T02:14:57.363Z,13.10
2023-05-24T02:17:27.194Z,13.10
2023-05-24T02:19:54.281Z,13.10
2023-05-24T02:22:22.481Z,13.10
2023-05-24T02:24:49.549Z,13.10
2023-05-24T02:27:16.621Z,13.00
2023-05-24T02:29:43.702Z,13.00
2023-05-24T02:32:10.852Z,13.00
2023-05-24T02:34:37.776Z,13.00
2023-05-24T02:37:04.920Z,13.00
2023-05-24T02:39:31.974Z,13.00
2023-05-24T02:41:59.038Z,13.00
2023-05-24T02:44:25.981Z,13.00
2023-05-24T02:46:52.975Z,13.00
2023-05-24T02:49:19.967Z,13.00
2023-05-24T02:51:47.087Z,13.00
2023-05-24T02:54:14.050Z,13.00
2023-05-24T02:56:41.249Z,12.90
2023-05-24T02:59:08.327Z,12.90
2023-05-24T03:01:35.781Z,12.90
2023-05-24T03:04:03.461Z,12.90
2023-05-24T03:06:31.228Z,12.90
2023-05-24T03:08:58.655Z,12.90
2023-05-24T03:11:26.484Z,12.80
2023-05-24T03:13:53.453Z,12.80
2023-05-24T03:16:21.224Z,12.80
2023-05-24T03:18:50.846Z,12.80
2023-05-24T03:21:20.961Z,12.80
2023-05-24T03:23:48.634Z,12.80
2023-05-24T03:26:15.601Z,12.80
2023-05-24T03:28:42.714Z,12.70
2023-05-24T03:31:09.990Z,12.70
2023-05-24T03:33:38.213Z,12.70
2023-05-24T03:36:05.783Z,12.70
2023-05-24T03:38:33.870Z,12.70
2023-05-24T03:41:01.036Z,12.70
2023-05-24T03:43:29.244Z,12.70
2023-05-24T03:45:58.926Z,12.60
2023-05-24T03:48:25.907Z,12.60
2023-05-24T03:50:53.400Z,12.60
2023-05-24T03:53:22.964Z,12.60
2023-05-24T03:55:50.396Z,12.50
2023-05-24T03:58:17.451Z,12.50
2023-05-24T04:00:45.148Z,12.50
2023-05-24T04:03:13.366Z,12.50
2023-05-24T04:05:40.708Z,12.50
2023-05-24T04:08:07.817Z,12.50
2023-05-24T04:10:37.796Z,12.50
2023-05-24T04:13:04.773Z,12.40
2023-05-24T04:15:37.921Z,12.50
2023-05-24T04:18:05.598Z,12.40
2023-05-24T04:20:34.962Z,12.40
2023-05-24T04:23:02.033Z,12.40
2023-05-24T04:25:29.735Z,12.40
2023-05-24T04:27:57.240Z,12.40
2023-05-24T04:30:27.067Z,12.40
2023-05-24T04:32:54.047Z,12.40
2023-05-24T04:35:21.410Z,12.30
2023-05-24T04:37:50.427Z,12.30
2023-05-24T04:40:23.027Z,12.40
2023-05-24T04:42:50.496Z,12.40
2023-05-24T04:45:17.511Z,12.30
2023-05-24T04:47:44.570Z,12.40
2023-05-24T04:50:11.589Z,12.40
2023-05-24T04:52:38.646Z,12.40
2023-05-24T04:55:06.094Z,12.40
2023-05-24T04:57:33.243Z,12.40
2023-05-24T05:00:00.291Z,12.40
2023-05-24T05:02:27.384Z,12.40
2023-05-24T05:04:54.472Z,12.40
2023-05-24T05:07:21.689Z,12.40
2023-05-24T05:09:48.771Z,12.40
2023-05-24T05:12:16.148Z,12.40
2023-05-24T05:14:43.340Z,12.40
2023-05-24T05:17:10.285Z,12.40
2023-05-24T05:19:37.356Z,12.40
2023-05-24T05:22:04.397Z,12.50
2023-05-24T05:24:31.638Z,12.50
2023-05-24T05:26:59.426Z,12.50
2023-05-24T05:29:26.470Z,12.50
2023-05-24T05:31:53.638Z,12.50
2023-05-24T05:34:21.359Z,12.50
2023-05-24T05:36:48.340Z,12.50
2023-05-24T05:39:15.436Z,12.50
2023-05-24T05:41:45.931Z,12.60
2023-05-24T05:44:14.699Z,12.60
2023-05-24T05:46:44.071Z,12.60
2023-05-24T05:49:11.177Z,12.60
2023-05-24T05:51:38.918Z,12.60
2023-05-24T05:54:06.156Z,12.60
2023-05-24T05:56:33.137Z,12.60
2023-05-24T05:59:00.202Z,12.70
2023-05-24T06:01:27.369Z,12.70
2023-05-24T06:03:54.476Z,12.70
2023-05-24T06:06:21.567Z,12.70
2023-05-24T06:08:48.583Z,12.80
2023-05-24T06:11:15.584Z,12.80
2023-05-24T06:13:42.709Z,12.80
2023-05-24T06:16:10.018Z,12.80
2023-05-24T06:18:37.319Z,12.80
2023-05-24T06:21:04.359Z,12.90
2023-05-24T06:23:32.311Z,12.90
2023-05-24T06:25:59.269Z,12.90
2023-05-24T06:28:26.232Z,13.00
2023-05-24T06:30:53.301Z,13.00
2023-05-24T06:33:20.950Z,13.10
2023-05-24T06:35:48.096Z,13.10
2023-05-24T06:38:15.136Z,13.10
2023-05-24T06:40:42.226Z,13.10
2023-05-24T06:43:09.335Z,13.20
2023-05-24T06:45:37.458Z,13.20
2023-05-24T06:48:04.693Z,13.30
2023-05-24T06:50:32.097Z,13.30
2023-05-24T06:52:59.017Z,13.30
2023-05-24T06:55:26.032Z,13.40
2023-05-24T06:57:52.950Z,13.40
2023-05-24T07:00:20.509Z,13.50
2023-05-24T07:02:47.625Z,13.50
2023-05-24T07:05:14.846Z,13.60
2023-05-24T07:07:42.449Z,13.60
2023-05-24T07:10:10.848Z,13.70
2023-05-24T07:12:38.089Z,13.70
2023-05-24T07:15:05.643Z,13.80
2023-05-24T07:17:33.018Z,13.80
2023-05-24T07:20:01.469Z,13.80
2023-05-24T07:22:29.872Z,13.90
2023-05-24T07:24:56.936Z,13.90
2023-05-24T07:27:23.989Z,14.00
2023-05-24T07:29:51.164Z,14.00
2023-05-24T07:32:18.219Z,14.10
2023-05-24T07:34:45.253Z,14.10
2023-05-24T07:37:12.270Z,14.20
2023-05-24T07:39:39.264Z,14.20
2023-05-24T07:42:06.507Z,14.30
2023-05-24T07:44:33.780Z,14.30
2023-05-24T07:47:02.531Z,14.40
2023-05-24T07:49:29.582Z,14.50
2023-05-24T07:51:59.558Z,14.50
2023-05-24T07:54:26.716Z,14.60
2023-05-24T07:56:53.803Z,14.60
2023-05-24T07:59:23.052Z,14.70
2023-05-24T08:01:50.651Z,14.80
2023-05-24T08:04:17.717Z,14.80
2023-05-24T08:06:46.871Z,14.90
2023-05-24T08:09:14.022Z,15.00
2023-05-24T08:11:41.985Z,15.00
2023-05-24T08:14:08.951Z,15.10
2023-05-24T08:16:36.260Z,15.20
2023-05-24T08:19:03.298Z,15.20
2023-05-24T08:21:30.356Z,15.20
2023-05-24T08:23:57.408Z,15.30
2023-05-24T08:26:24.517Z,15.40
2023-05-24T08:28:51.729Z,15.40
2023-05-24T08:31:18.818Z,15.50
2023-05-24T08:33:50.419Z,15.60
2023-05-24T08:36:17.803Z,15.60
2023-05-24T08:38:44.688Z,15.70
2023-05-24T08:41:11.913Z,15.70
2023-05-24T08:43:38.901Z,15.80
2023-05-24T08:46:06.522Z,15.90
2023-05-24T08:48:34.964Z,16.00
2023-05-24T08:51:02.895Z,16.10
2023-05-24T08:53:30.772Z,16.10
2023-05-24T08:55:57.728Z,16.20
2023-05-24T08:58:24.894Z,16.30
2023-05-24T09:00:51.922Z,16.30
2023-05-24T09:03:19.512Z,16.40
2023-05-24T09:05:47.108Z,16.50
2023-05-24T09:08:18.192Z,16.50
2023-05-24T09:10:55.001Z,16.60
2023-05-24T09:13:24.959Z,16.80
2023-05-24T09:15:52.306Z,16.90
2023-05-24T09:18:19.411Z,17.00
2023-05-24T09:20:46.755Z,17.10
2023-05-24T09:23:14.753Z,17.20
2023-05-24T09:25:45.251Z,17.30
2023-05-24T09:28:16.896Z,17.50
2023-05-24T09:30:44.849Z,17.60
2023-05-24T09:33:12.967Z,17.80
2023-05-24T09:35:44.185Z,18.00
2023-05-24T09:38:20.533Z,18.20
2023-05-24T09:40:47.461Z,18.60
2023-05-24T09:43:14.385Z,19.10
2023-05-24T09:45:43.080Z,19.70
2023-05-24T09:48:11.283Z,20.50
2023-05-24T09:50:38.298Z,21.30
2023-05-24T09:53:05.322Z,22.10
2023-05-24T09:55:35.885Z,22.90
2023-05-24T09:58:04.192Z,23.70
2023-05-24T10:00:36.449Z,24.50
2023-05-24T10:03:07.511Z,25.20
2023-05-24T10:05:35.350Z,25.80
2023-05-24T10:08:05.134Z,26.30
2023-05-24T10:10:33.542Z,26.80
2023-05-24T10:13:01.677Z,27.30
2023-05-24T10:15:28.987Z,27.60
2023-05-24T10:17:56.678Z,27.90
2023-05-24T10:20:24.127Z,28.20
2023-05-24T10:23:03.776Z,28.50
2023-05-24T10:25:33.009Z,28.80
2023-05-24T10:28:07.395Z,29.20
2023-05-24T10:30:48.992Z,29.40
2023-05-24T10:33:16.856Z,29.60
2023-05-24T10:35:44.102Z,29.90
2023-05-24T10:38:11.171Z,30.10
2023-05-24T10:40:42.315Z,30.30
2023-05-24T10:43:09.699Z,30.50
2023-05-24T10:45:38.095Z,30.70
2023-05-24T10:48:09.504Z,30.90
2023-05-24T10:50:36.446Z,31.10
2023-05-24T10:53:23.735Z,31.30
2023-05-24T10:55:57.444Z,31.50
2023-05-24T10:58:47.630Z,31.60
2023-05-24T11:01:24.942Z,31.70
2023-05-24T11:03:52.434Z,31.80
2023-05-24T11:06:19.850Z,31.90
2023-05-24T11:08:46.904Z,31.90
2023-05-24T11:11:25.438Z,32.00
2023-05-24T11:13:57.966Z,32.10
2023-05-24T11:16:39.229Z,32.20
2023-05-24T11:19:14.933Z,32.30
2023-05-24T11:21:43.999Z,32.40
2023-05-24T11:24:11.024Z,32.50
2023-05-24T11:26:38.081Z,32.60
2023-05-24T11:29:07.891Z,32.70
2023-05-24T11:31:37.926Z,32.70
2023-05-24T11:34:10.131Z,32.80
2023-05-24T11:36:37.151Z,32.80
2023-05-24T11:39:08.453Z,32.90
2023-05-24T11:41:37.175Z,33.10
2023-05-24T11:44:04.362Z,33.20
2023-05-24T11:46:31.722Z,33.20
2023-05-24T11:48:59.434Z,33.30
2023-05-24T11:51:27.645Z,33.50
2023-05-24T11:53:55.617Z,33.60
2023-05-24T11:56:23.329Z,33.70
2023-05-24T11:58:53.880Z,33.80
2023-05-24T12:01:25.093Z,33.70
2023-05-24T12:03:53.558Z,33.40
2023-05-24T12:06:21.629Z,33.10
2023-05-24T12:08:49.618Z,32.60
2023-05-24T12:11:17.363Z,32.20
2023-05-24T12:13:44.591Z,31.90
2023-05-24T12:16:13.152Z,31.50
2023-05-24T12:18:45.808Z,31.00
2023-05-24T12:21:20.401Z,30.50
2023-05-24T12:23:48.345Z,30.00
2023-05-24T12:26:18.497Z,29.60
2023-05-24T12:28:45.472Z,29.20
2023-05-24T12:31:12.485Z,28.80
2023-05-24T12:33:39.823Z,28.50
2023-05-24T12:36:07.422Z,28.40
2023-05-24T12:38:34.376Z,28.20
2023-05-24T12:41:11.229Z,28.10
2023-05-24T12:43:39.423Z,27.90
2023-05-24T12:46:07.001Z,27.70
2023-05-24T12:48:34.057Z,27.70
2023-05-24T12:51:02.181Z,27.90
2023-05-24T12:53:29.303Z,28.20
2023-05-24T12:55:56.599Z,28.50
2023-05-24T12:58:23.742Z,28.90
2023-05-24T13:00:52.076Z,29.20
2023-05-24T13:03:19.214Z,29.50
2023-05-24T13:05:47.458Z,29.70
2023-05-24T13:08:14.801Z,29.90
2023-05-24T13:10:42.118Z,30.10
2023-05-24T13:13:09.441Z,30.20
2023-05-24T13:15:38.078Z,30.30
2023-05-24T13:18:05.337Z,30.30
2023-05-24T13:20:32.436Z,30.30
2023-05-24T13:22:59.414Z,30.30
2023-05-24T13:25:27.237Z,30.30
2023-05-24T13:27:54.356Z,30.30
2023-05-24T13:30:27.636Z,30.20
2023-05-24T13:32:55.710Z,30.20
2023-05-24T13:35:22.802Z,30.20
2023-05-24T13:37:49.784Z,29.90
2023-05-24T13:40:17.111Z,29.60
2023-05-24T13:42:44.102Z,29.40
2023-05-24T13:45:12.062Z,29.20
2023-05-24T13:47:40.868Z,28.90
2023-05-24T13:50:08.568Z,28.50
2023-05-24T13:52:35.607Z,28.30
2023-05-24T13:55:05.934Z,28.00
2023-05-24T13:57:49.489Z,27.90
2023-05-24T14:00:18.224Z,27.70
2023-05-24T14:02:45.319Z,27.50
2023-05-24T14:07:42.444Z,27.10
2023-05-24T14:10:09.820Z,26.80
2023-05-24T14:12:36.824Z,26.70
2023-05-24T14:15:05.122Z,26.50
2023-05-24T14:17:32.124Z,26.30
2023-05-24T14:19:59.108Z,26.30
2023-05-24T14:22:26.558Z,26.20
2023-05-24T14:24:53.617Z,26.00
2023-05-24T14:27:20.792Z,25.80
2023-05-24T14:29:47.849Z,25.70
2023-05-24T14:32:16.994Z,25.70
2023-05-24T14:34:44.106Z,25.60
2023-05-24T14:37:11.175Z,25.60
2023-05-24T14:39:38.432Z,25.50
2023-05-24T14:42:06.274Z,25.30
2023-05-24T14:44:33.184Z,25.20
2023-05-24T14:47:00.183Z,25.10
2023-05-24T14:49:27.172Z,25.00
2023-05-24T14:51:54.140Z,24.90
2023-05-24T14:54:21.141Z,24.90
2023-05-24T14:56:48.063Z,24.80
2023-05-24T14:59:16.123Z,24.70
2023-05-24T15:01:43.119Z,24.60
2023-05-24T15:04:10.172Z,24.50
2023-05-24T15:06:38.840Z,24.40
2023-05-24T15:09:06.631Z,24.30
2023-05-24T15:11:33.648Z,24.10
2023-05-24T15:14:01.033Z,24.00
2023-05-24T15:16:28.416Z,23.90
2023-05-24T15:18:55.483Z,23.80
2023-05-24T15:21:22.478Z,23.70
2023-05-24T15:23:49.463Z,23.50
2023-05-24T15:26:16.428Z,23.40
2023-05-24T15:28:43.413Z,23.30
2023-05-24T15:31:10.520Z,23.20
2023-05-24T15:33:37.557Z,23.20
2023-05-24T15:36:04.816Z,23.10
2023-05-24T15:38:31.803Z,23.10
2023-05-24T15:40:58.868Z,23.10
2023-05-24T15:43:25.789Z,23.00
2023-05-24T15:45:53.650Z,22.90
2023-05-24T15:48:20.805Z,22.90
2023-05-24T15:51:25.626Z,22.80
2023-05-24T15:53:34.744Z,22.70
2023-05-24T15:56:01.940Z,22.70
2023-05-24T15:58:28.902Z,22.60
2023-05-24T16:00:55.940Z,22.50
2023-05-24T16:03:23.028Z,22.40
2023-05-24T16:05:50.624Z,22.40
2023-05-24T16:08:17.969Z,22.30
2023-05-24T16:10:45.399Z,22.30
2023-05-24T16:13:12.517Z,22.20
2023-05-24T16:15:41.833Z,22.20
2023-05-24T16:18:08.871Z,22.10
2023-05-24T16:20:36.552Z,22.00
2023-05-24T16:23:03.825Z,22.00
2023-05-24T16:25:30.928Z,21.90
2023-05-24T16:27:57.888Z,21.90
2023-05-24T16:30:25.624Z,21.90
2023-05-24T16:32:52.788Z,21.80
2023-05-24T16:35:19.809Z,21.80
2023-05-24T16:37:48.484Z,21.70
2023-05-24T16:40:15.475Z,21.70
2023-05-24T16:42:42.413Z,21.60
2023-05-24T16:45:09.515Z,21.60
2023-05-24T16:47:36.789Z,21.50
2023-05-24T16:50:04.075Z,21.50
2023-05-24T16:52:30.999Z,21.40
2023-05-24T16:54:58.138Z,21.40
2023-05-24T16:57:25.162Z,21.30
2023-05-24T16:59:52.104Z,21.30
2023-05-24T17:02:19.122Z,21.30
2023-05-24T17:04:46.073Z,21.30
2023-05-24T17:07:13.090Z,21.20
2023-05-24T17:09:40.029Z,21.10
2023-05-24T17:12:07.083Z,21.10
2023-05-24T17:14:34.072Z,21.00
2023-05-24T17:17:01.096Z,21.00
2023-05-24T17:19:28.175Z,20.90
2023-05-24T17:21:55.121Z,20.90
2023-05-24T17:24:25.356Z,20.80
2023-05-24T17:26:52.406Z,20.80
2023-05-24T17:29:19.377Z,20.80
2023-05-24T17:31:47.164Z,20.70
2023-05-24T17:34:17.412Z,20.70
2023-05-24T17:36:44.454Z,20.60
2023-05-24T17:39:11.528Z,20.50
2023-05-24T17:41:38.654Z,20.50
2023-05-24T17:44:05.614Z,20.50
2023-05-24T17:46:35.698Z,20.40
2023-05-24T17:49:04.536Z,20.40
2023-05-24T17:51:31.906Z,20.40
2023-05-24T17:53:58.869Z,20.40
2023-05-24T17:56:25.960Z,20.30
2023-05-24T17:58:52.957Z,20.30
2023-05-24T18:01:19.933Z,20.30
2023-05-24T18:03:47.057Z,20.30
2023-05-24T18:06:14.168Z,20.20
2023-05-24T18:08:43.821Z,20.20
2023-05-24T18:11:12.735Z,20.20
2023-05-24T18:13:43.043Z,20.20
2023-05-24T18:16:10.857Z,20.10
2023-05-24T18:18:37.933Z,20.10
2023-05-24T18:21:05.565Z,20.10
2023-05-24T18:23:34.218Z,20.10
2023-05-24T18:26:02.181Z,20.00
2023-05-24T18:28:33.261Z,20.00
2023-05-24T18:31:00.220Z,19.90
2023-05-24T18:33:27.263Z,19.90
2023-05-24T18:35:54.174Z,19.80
2023-05-24T18:38:21.579Z,19.80
2023-05-24T18:40:48.530Z,19.80
2023-05-24T18:43:15.571Z,19.70
2023-05-24T18:45:42.855Z,19.70
2023-05-24T18:48:09.983Z,19.70
2023-05-24T18:50:36.981Z,19.70
2023-05-24T18:53:03.896Z,19.60
2023-05-24T18:55:30.871Z,19.60
2023-05-24T18:57:57.919Z,19.60
2023-05-24T19:00:24.909Z,19.60
2023-05-24T19:02:52.190Z,19.60
2023-05-24T19:05:19.575Z,19.50
2023-05-24T19:07:46.675Z,19.50
2023-05-24T19:10:14.006Z,19.40
2023-05-24T19:12:41.145Z,19.40
2023-05-24T19:15:08.711Z,19.40
2023-05-24T19:17:35.721Z,19.30
2023-05-24T19:20:02.913Z,19.30
2023-05-24T19:22:30.080Z,19.30
2023-05-24T19:24:57.250Z,19.20
2023-05-24T19:27:24.738Z,19.20
2023-05-24T19:29:51.741Z,19.20
2023-05-24T19:32:20.473Z,19.10
2023-05-24T19:34:47.661Z,19.10
2023-05-24T19:37:15.918Z,19.10
2023-05-24T19:39:43.001Z,19.10
2023-05-24T19:42:11.718Z,19.00
2023-05-24T19:44:38.786Z,19.00
2023-05-24T19:47:05.912Z,19.00
2023-05-24T19:49:33.003Z,18.90
2023-05-24T19:51:59.955Z,18.90
2023-05-24T19:54:26.942Z,18.90
2023-05-24T19:56:55.963Z,18.80
2023-05-24T19:59:22.932Z,18.80
2023-05-24T20:01:49.957Z,18.70
2023-05-24T20:04:17.025Z,18.70
2023-05-24T20:06:44.173Z,18.70
2023-05-24T20:09:11.486Z,18.60
2023-05-24T20:11:38.590Z,18.60
2023-05-24T20:14:05.598Z,18.50
2023-05-24T20:16:32.702Z,18.50
2023-05-24T20:18:59.756Z,18.50
2023-05-24T20:21:26.695Z,18.50
2023-05-24T20:23:57.937Z,18.40
2023-05-24T20:26:26.080Z,18.30
2023-05-24T20:28:53.164Z,18.30
2023-05-24T20:31:20.207Z,18.20
2023-05-24T20:33:47.303Z,18.20
2023-05-24T20:36:15.254Z,18.20
2023-05-24T20:38:42.405Z,18.10
2023-05-24T20:41:09.359Z,18.10
2023-05-24T20:43:36.417Z,18.00
2023-05-24T20:46:03.577Z,18.00
2023-05-24T20:48:30.687Z,18.00
2023-05-24T20:50:57.639Z,17.90
2023-05-24T20:53:24.698Z,17.90
2023-05-24T20:55:51.696Z,17.90
2023-05-24T20:58:18.677Z,17.80
2023-05-24T21:00:47.608Z,17.80
2023-05-24T21:03:14.820Z,17.80
2023-05-24T21:05:42.043Z,17.70
2023-05-24T21:08:09.168Z,17.70
2023-05-24T21:10:38.106Z,17.70
2023-05-24T21:13:05.270Z,17.70
2023-05-24T21:15:32.294Z,17.60
2023-05-24T21:18:00.229Z,17.60
2023-05-24T21:20:27.349Z,17.60
2023-05-24T21:22:54.292Z,17.60
2023-05-24T21:25:21.280Z,17.60
2023-05-24T21:27:48.332Z,17.60
2023-05-24T21:30:15.536Z,17.60
2023-05-24T21:32:42.590Z,17.60
2023-05-24T21:35:09.696Z,17.60
2023-05-24T21:37:36.695Z,17.60
2023-05-24T21:40:05.343Z,17.50
2023-05-24T21:42:32.457Z,17.50
2023-05-24T21:44:59.674Z,17.60
2023-05-24T21:47:26.710Z,17.50
2023-05-24T21:49:55.010Z,17.60
2023-05-24T21:52:22.111Z,17.60
2023-05-24T21:54:49.049Z,17.60
2023-05-24T21:57:16.233Z,17.50
2023-05-24T21:59:43.117Z,17.60
2023-05-24T22:02:10.145Z,17.60
2023-05-24T22:04:37.098Z,17.60
2023-05-24T22:07:04.198Z,17.50
2023-05-24T22:09:31.901Z,17.50
2023-05-24T22:11:58.886Z,17.50
2023-05-24T22:14:25.909Z,17.40
2023-05-24T22:16:53.091Z,17.40
2023-05-24T22:19:28.472Z,17.50
2023-05-24T22:21:59.700Z,17.40
2023-05-24T22:24:27.166Z,17.50
2023-05-24T22:26:55.929Z,17.40
2023-05-24T22:29:22.916Z,17.40
2023-05-24T22:31:49.915Z,17.40
2023-05-24T22:34:25.681Z,17.40
2023-05-24T22:36:52.666Z,17.40
2023-05-24T22:39:19.590Z,17.40
2023-05-24T22:41:46.716Z,17.40
2023-05-24T22:44:13.704Z,17.40
2023-05-24T22:46:40.889Z,17.40
2023-05-24T22:49:07.961Z,17.40
2023-05-24T22:51:34.884Z,17.40
2023-05-24T22:54:01.869Z,17.40
2023-05-24T22:56:28.934Z,17.30
2023-05-24T22:58:56.744Z,17.30
2023-05-24T23:01:23.824Z,17.30
2023-05-24T23:03:51.047Z,17.30
2023-05-24T23:06:17.983Z,17.20
2023-05-24T23:08:44.972Z,17.20
2023-05-24T23:11:11.983Z,17.20
2023-05-24T23:13:42.280Z,17.20
2023-05-24T23:16:18.057Z,17.20
2023-05-24T23:18:45.359Z,17.10
2023-05-24T23:21:15.325Z,17.10
2023-05-24T23:23:42.903Z,17.00
2023-05-24T23:26:09.871Z,17.00
2023-05-24T23:28:36.831Z,17.10
2023-05-24T23:31:03.990Z,17.00
2023-05-24T23:33:31.056Z,17.10
2023-05-24T23:35:58.023Z,17.00
2023-05-24T23:38:25.056Z,17.00
2023-05-24T23:40:51.928Z,17.00
2023-05-24T23:43:18.993Z,17.00
2023-05-24T23:45:46.086Z,16.90
2023-05-24T23:48:13.166Z,16.90
2023-05-24T23:50:53.098Z,16.90
2023-05-24T23:53:21.219Z,16.90
2023-05-24T23:55:48.234Z,16.90
2023-05-24T23:58:15.489Z,16.90
